Metabaru Air Base, Japan

6:14 PM JST on March 01, 2015 (GMT +0900)
Saga | Change Station
CLOSE
Current Station
Airport
Location: Saga Airport,
Elevation: 16 ft
Nearby Weather Stations

Elev 16 ft 33.15 °N, 130.30 °E | Updated 14 minutes ago

Mostly Cloudy
Mostly Cloudy
46 °F
Feels Like 40 °F
N
14
Wind Variable Wind from WNW

Today
High -- | Low -- °F
--% Chance of Precip.
Yesterday
High -- | Low -- °F
Precip. -- in
6:47 AM 6:14 PM
Waxing Gibbous, 84% visible
Pressure 30.01 in
Visibility 6.2 miles
Clouds Few 3000 ft
Mostly Cloudy 4000 ft
Windchill 40 °F
Dew Point 34 °F
Humidity 62%
Rainfall 0.00 in
Snow Depth Not available.
UV 0 out of 12
Pollen Not available.
Air Quality Not available.
Flu Activity Not available.
METAR RJFS 010900Z 30012KT 9999 FEW030 BKN040 08/01 Q1016

More Conditions Fewer Conditions

Pressure 30.01 in
Visibility 6.2 miles
Clouds Few 3000 ft
Mostly Cloudy 4000 ft
Windchill 40 °F
Dew Point 34 °F
Humidity 62%
Rainfall 0.00 in
Snow Depth Not available.
UV 0 out of 12
Pollen Not available.
Air Quality Not available.
Flu Activity Not available.
METAR RJFS 010900Z 30012KT 9999 FEW030 BKN040 08/01 Q1016

More Conditions Fewer Conditions

10-Day Weather Forecast

Almanac

Astronomy

Mar. 01, 2015 Rise Set
Actual Time
Civil Twilight
Nautical Twilight
Astronomical Twilight
Moon
Length of Visible Light
Length of Day
Tomorrow will be .
, % of the Moon is Illuminated

Today's Extremes

Country Highs Country Lows

Community

WunderPhotos

Upload Photos

1,801,350 photos uploaded!

WunderBlogs® & News

Nearby

Air Quality

  Air Quality AQ Index Pollutant
Not available.

Snow Depth

Station Depth Elevation

Earthquake Activity

City Distance Mag. Time & Date
Minimum magnitude displayed is 2.5.

Coastal Water Temperatures

Place Temperature

Nearby Weather Stations